TimeMDT,TemperatureF,Dew PointF,Humidity,Sea Level PressureIn,VisibilityMPH,Wind Direction,Wind SpeedMPH,Gust SpeedMPH,PrecipitationIn,Events,Conditions,WindDirDegrees,DateUTC
12:15 AM,55.4,30.2,38,30.23,10.0,SSW,4.6,-,N/A,,Clear,200,2012-09-22 06:15:00
12:35 AM,57.2,32.0,38,30.23,10.0,SSW,6.9,-,N/A,,Clear,200,2012-09-22 06:35:00
12:55 AM,55.4,33.8,44,30.23,10.0,SW,5.8,-,N/A,,Clear,230,2012-09-22 06:55:00
1:15 AM,51.8,32.0,47,30.23,10.0,Calm,Calm,-,N/A,,Clear,0,2012-09-22 07:15:00
1:35 AM,53.6,30.2,41,30.23,10.0,South,4.6,-,N/A,,Clear,170,2012-09-22 07:35:00
1:55 AM,51.8,30.2,44,30.24,10.0,South,5.8,-,N/A,,Clear,180,2012-09-22 07:55:00
2:15 AM,53.6,30.2,41,30.24,10.0,South,5.8,-,N/A,,Clear,170,2012-09-22 08:15:00
2:35 AM,53.6,32.0,44,30.24,10.0,South,3.5,-,N/A,,Clear,180,2012-09-22 08:35:00
2:55 AM,51.8,30.2,44,30.24,10.0,South,4.6,-,N/A,,Clear,190,2012-09-22 08:55:00
3:15 AM,50.0,30.2,47,30.23,10.0,South,4.6,-,N/A,,Clear,180,2012-09-22 09:15:00
3:55 AM,51.8,30.2,44,30.23,10.0,SSW,5.8,-,N/A,,Clear,200,2012-09-22 09:55:00
4:15 AM,51.8,32.0,47,30.23,10.0,SSW,3.5,-,N/A,,Clear,200,2012-09-22 10:15:00
4:35 AM,53.6,32.0,44,30.23,10.0,SW,4.6,-,N/A,,Clear,220,2012-09-22 10:35:00
4:55 AM,53.6,32.0,44,30.23,10.0,SSW,6.9,-,N/A,,Clear,200,2012-09-22 10:55:00
5:15 AM,51.8,30.2,44,30.23,10.0,South,5.8,-,N/A,,Clear,180,2012-09-22 11:15:00
5:35 AM,51.8,30.2,44,30.23,10.0,South,3.5,-,N/A,,Clear,170,2012-09-22 11:35:00
5:55 AM,51.8,30.2,44,30.23,10.0,SSE,4.6,-,N/A,,Clear,160,2012-09-22 11:55:00
6:15 AM,48.2,30.2,50,30.23,10.0,South,6.9,-,N/A,,Clear,170,2012-09-22 12:15:00
6:35 AM,50.0,32.0,50,30.23,10.0,SSW,9.2,-,N/A,,Clear,200,2012-09-22 12:35:00
6:55 AM,50.0,30.2,47,30.23,10.0,SSW,6.9,-,N/A,,Clear,210,2012-09-22 12:55:00
7:15 AM,51.8,32.0,47,30.24,10.0,SSW,6.9,-,N/A,,Clear,210,2012-09-22 13:15:00
7:35 AM,48.2,32.0,54,30.24,10.0,Calm,Calm,-,N/A,,Clear,0,2012-09-22 13:35:00
7:55 AM,48.2,33.8,58,30.24,10.0,Calm,Calm,-,N/A,,Clear,0,2012-09-22 13:55:00
8:15 AM,48.2,33.8,58,30.24,10.0,SSW,3.5,-,N/A,,Clear,210,2012-09-22 14:15:00
8:55 AM,57.2,33.8,41,30.24,10.0,SW,5.8,-,N/A,,Clear,230,2012-09-22 14:55:00
9:35 AM,60.8,33.8,36,30.24,10.0,SW,3.5,-,N/A,,Clear,230,2012-09-22 15:35:00
9:55 AM,62.6,39.2,42,30.23,10.0,Calm,Calm,-,N/A,,Clear,0,2012-09-22 15:55:00
10:15 AM,62.6,41.0,45,30.23,10.0,Calm,Calm,-,N/A,,Clear,0,2012-09-22 16:15:00
10:35 AM,62.6,37.4,39,30.23,10.0,Calm,Calm,-,N/A,,Clear,0,2012-09-22 16:35:00
10:55 AM,64.4,39.2,40,30.23,10.0,North,4.6,-,N/A,,Clear,10,2012-09-22 16:55:00
11:15 AM,64.4,39.2,40,30.22,10.0,North,6.9,-,N/A,,Clear,10,2012-09-22 17:15:00
11:35 AM,66.2,37.4,35,30.22,10.0,North,4.6,-,N/A,,Clear,10,2012-09-22 17:35:00
12:15 PM,69.8,39.2,33,30.21,10.0,North,5.8,-,N/A,,Clear,10,2012-09-22 18:15:00
12:35 PM,69.8,35.6,28,30.20,10.0,NE,8.1,-,N/A,,Clear,40,2012-09-22 18:35:00
12:55 PM,71.6,37.4,29,30.19,10.0,NE,8.1,-,N/A,,Clear,40,2012-09-22 18:55:00
1:15 PM,71.6,37.4,29,30.19,10.0,North,3.5,-,N/A,,Clear,10,2012-09-22 19:15:00
1:35 PM,71.6,37.4,29,30.18,10.0,NNE,5.8,-,N/A,,Clear,30,2012-09-22 19:35:00
1:55 PM,73.4,37.4,27,30.17,10.0,NNE,4.6,-,N/A,,Clear,30,2012-09-22 19:55:00
2:15 PM,73.4,37.4,27,30.17,10.0,NNE,5.8,-,N/A,,Clear,30,2012-09-22 20:15:00
2:35 PM,73.4,39.2,29,30.16,10.0,North,3.5,-,N/A,,Clear,350,2012-09-22 20:35:00
2:55 PM,73.4,37.4,27,30.16,10.0,North,8.1,-,N/A,,Clear,360,2012-09-22 20:55:00
3:15 PM,73.4,39.2,29,30.15,10.0,NNW,6.9,-,N/A,,Clear,340,2012-09-22 21:15:00
3:35 PM,73.4,37.4,27,30.15,10.0,Calm,Calm,-,N/A,,Clear,0,2012-09-22 21:35:00
3:55 PM,75.2,35.6,24,30.14,10.0,Calm,Calm,-,N/A,,Clear,0,2012-09-22 21:55:00
4:15 PM,73.4,41.0,31,30.14,10.0,NNE,8.1,-,N/A,,Clear,20,2012-09-22 22:15:00
4:35 PM,73.4,39.2,29,30.13,10.0,NNE,9.2,-,N/A,,Clear,20,2012-09-22 22:35:00
4:55 PM,71.6,39.2,31,30.13,10.0,North,10.4,-,N/A,,Clear,10,2012-09-22 22:55:00
5:15 PM,71.6,39.2,31,30.13,10.0,North,11.5,-,N/A,,Clear,360,2012-09-22 23:15:00
5:35 PM,69.8,39.2,33,30.13,10.0,North,10.4,-,N/A,,Clear,10,2012-09-22 23:35:00
5:55 PM,69.8,37.4,31,30.13,10.0,NNE,6.9,-,N/A,,Clear,20,2012-09-22 23:55:00
6:15 PM,69.8,37.4,31,30.13,10.0,North,6.9,-,N/A,,Clear,10,2012-09-23 00:15:00
7:15 PM,66.2,35.6,32,30.13,10.0,NNW,3.5,-,N/A,,Clear,340,2012-09-23 01:15:00
7:35 PM,66.2,35.6,32,30.13,10.0,WNW,5.8,-,N/A,,Clear,300,2012-09-23 01:35:00
8:15 PM,64.4,32.0,30,30.14,10.0,Calm,Calm,-,N/A,,Clear,0,2012-09-23 02:15:00
8:35 PM,64.4,32.0,30,30.15,10.0,Calm,Calm,-,N/A,,Clear,0,2012-09-23 02:35:00
8:55 PM,64.4,33.8,32,30.15,10.0,Calm,Calm,-,N/A,,Clear,0,2012-09-23 02:55:00
9:15 PM,57.2,32.0,38,30.15,10.0,Calm,Calm,-,N/A,,Partly Cloudy,0,2012-09-23 03:15:00
9:35 PM,57.2,30.2,36,30.15,10.0,South,3.5,-,N/A,,Scattered Clouds,170,2012-09-23 03:35:00
9:55 PM,57.2,33.8,41,30.15,10.0,South,5.8,-,N/A,,Partly Cloudy,180,2012-09-23 03:55:00
10:15 PM,55.4,30.2,38,30.15,10.0,SW,4.6,-,N/A,,Clear,220,2012-09-23 04:15:00
10:35 PM,55.4,30.2,38,30.15,10.0,SSW,5.8,-,N/A,,Clear,200,2012-09-23 04:35:00
10:55 PM,59.0,32.0,36,30.15,10.0,SW,6.9,-,N/A,,Clear,220,2012-09-23 04:55:00
11:15 PM,60.8,32.0,34,30.15,10.0,SSW,4.6,-,N/A,,Clear,210,2012-09-23 05:15:00
11:35 PM,59.0,35.6,42,30.15,10.0,SW,5.8,-,N/A,,Clear,230,2012-09-23 05:35:00